Time;durP1;ratioP1;P1;durP2;ratioP2;P2;SDS_P1;SDS_P2;PMS_P1;PMS_P2;Temp;Humidity;BMP_temperature;BMP_pressure;BME280_temperature;BME280_humidity;BME280_pressure;Samples;Min_cycle;Max_cycle;Signal;HPM_P1;HPM_P2
2021/03/05 00:00:27;;;;;;;48.65;31.05;;;;;;;11.98;44.71;99936.27;1655534;86;21730;-79
2021/03/05 00:02:56;;;;;;;47.40;31.20;;;;;;;11.98;44.66;99935.44;1654579;86;21220;-78
2021/03/05 00:05:25;;;;;;;48.30;30.95;;;;;;;12.00;44.69;99942.31;1654297;86;21252;-78
2021/03/05 00:07:55;;;;;;;49.75;30.62;;;;;;;12.00;44.69;99925.37;1656074;86;21188;-77
2021/03/05 00:10:31;;;;;;;46.33;30.48;;;;;;;12.00;44.70;99928.89;1656219;86;21274;-82
2021/03/05 00:12:58;;;;;;;46.83;30.48;;;;;;;12.01;44.76;99944.48;1655430;85;21204;-78
2021/03/05 00:15:29;;;;;;;50.95;31.30;;;;;;;11.99;44.78;99939.31;1655434;86;21179;-79
2021/03/05 00:17:57;;;;;;;49.75;31.97;;;;;;;11.99;44.83;99942.47;1655483;86;21161;-75
2021/03/05 00:20:26;;;;;;;55.43;32.08;;;;;;;11.97;44.80;99948.03;1655857;86;21180;-76
2021/03/05 00:22:54;;;;;;;49.10;31.62;;;;;;;11.97;44.82;99951.22;1656059;86;21235;-76
2021/03/05 00:25:21;;;;;;;57.05;33.28;;;;;;;11.98;44.89;99936.78;1656018;86;21670;-75
2021/03/05 00:27:49;;;;;;;55.45;33.90;;;;;;;11.98;44.84;99946.17;1656316;86;21167;-78
2021/03/05 00:30:19;;;;;;;57.03;34.48;;;;;;;11.98;44.89;99947.01;1656588;86;21227;-73
2021/03/05 00:32:47;;;;;;;53.50;32.65;;;;;;;11.98;44.93;99941.64;1658378;86;21188;-73
2021/03/05 00:35:17;;;;;;;60.60;34.83;;;;;;;11.97;44.94;99945.34;1657737;86;21244;-80
2021/03/05 00:37:47;;;;;;;49.27;32.90;;;;;;;11.97;45.04;99948.03;1655659;86;21219;-75
2021/03/05 00:40:16;;;;;;;54.73;33.67;;;;;;;11.96;45.10;99949.05;1655564;86;21232;-76
2021/03/05 00:42:44;;;;;;;52.20;33.83;;;;;;;11.98;45.18;99960.94;1655572;85;21667;-76
2021/03/05 00:45:14;;;;;;;50.38;32.25;;;;;;;11.99;45.20;99958.09;1655538;86;21599;-79
2021/03/05 00:47:43;;;;;;;54.80;34.78;;;;;;;12.00;45.18;99957.58;1655499;86;21730;-80
2021/03/05 00:50:13;;;;;;;51.70;32.58;;;;;;;11.99;45.17;99954.55;1631355;86;21211;-77
2021/03/05 00:52:40;;;;;;;54.65;34.55;;;;;;;12.00;45.14;99958.92;1655442;86;21223;-78
2021/03/05 00:55:09;;;;;;;56.23;33.78;;;;;;;11.99;45.16;99954.55;1632478;86;21260;-77
2021/03/05 00:57:37;;;;;;;52.75;34.60;;;;;;;11.98;45.22;99957.74;1630888;86;21181;-79
2021/03/05 01:00:09;;;;;;;54.80;32.88;;;;;;;11.96;45.23;99950.91;1655402;85;21208;-78
2021/03/05 01:02:36;;;;;;;55.58;34.03;;;;;;;11.96;45.25;99953.59;1655467;85;21223;-80
2021/03/05 01:05:07;;;;;;;57.80;35.73;;;;;;;11.94;45.31;99956.43;1655646;86;21224;-75
2021/03/05 01:07:35;;;;;;;56.00;34.60;;;;;;;11.93;45.34;99964.16;1632819;86;21208;-79
2021/03/05 01:10:04;;;;;;;54.18;33.48;;;;;;;11.91;45.35;99956.30;1655365;86;21208;-76
2021/03/05 01:12:32;;;;;;;55.35;33.63;;;;;;;11.91;45.38;99975.59;1655434;86;21714;-80
2021/03/05 01:14:59;;;;;;;55.67;32.50;;;;;;;11.89;45.38;99977.61;1656317;85;21220;-78
2021/03/05 01:17:26;;;;;;;53.00;32.98;;;;;;;11.88;45.42;99983.99;1628825;86;21260;-77
2021/03/05 01:19:54;;;;;;;56.28;32.63;;;;;;;11.84;45.37;99980.82;1649510;87;21216;-75
2021/03/05 01:22:21;;;;;;;52.78;32.30;;;;;;;11.81;45.34;99989.22;1649887;87;21253;-78
2021/03/05 01:24:49;;;;;;;52.93;31.70;;;;;;;11.76;45.29;99984.86;1657139;85;21235;-77
2021/03/05 01:27:17;;;;;;;54.27;33.48;;;;;;;11.69;45.38;99990.11;1660693;85;21187;-76
2021/03/05 01:29:44;;;;;;;53.63;31.05;;;;;;;11.64;45.41;100004.56;1654603;85;22235;-78
2021/03/05 01:32:12;;;;;;;46.02;30.92;;;;;;;11.56;45.47;99999.24;1661879;85;21179;-75
2021/03/05 01:34:41;;;;;;;49.55;31.77;;;;;;;11.50;45.58;99993.76;1656691;85;21245;-76
2021/03/05 01:37:09;;;;;;;51.33;31.37;;;;;;;11.46;45.68;100006.67;1655339;85;21294;-79
2021/03/05 01:39:37;;;;;;;50.90;31.20;;;;;;;11.41;45.80;100007.70;1655212;86;21244;-78
2021/03/05 01:42:05;;;;;;;52.25;31.77;;;;;;;11.38;45.85;100004.86;1651808;86;21235;-76
2021/03/05 01:44:33;;;;;;;51.10;31.77;;;;;;;11.34;45.93;100012.08;1654981;86;21265;-78
2021/03/05 01:47:01;;;;;;;54.20;31.87;;;;;;;11.31;45.92;100021.80;1655110;86;21734;-76
2021/03/05 01:49:29;;;;;;;57.70;30.80;;;;;;;11.25;45.93;100018.48;1651490;86;21192;-80
2021/03/05 01:51:56;;;;;;;52.83;30.30;;;;;;;11.20;45.98;100020.34;1655391;86;21153;-77
2021/03/05 01:54:24;;;;;;;;;;;;;;;11.14;46.02;100027.24;1657518;86;21223;-75
2021/03/05 01:56:54;;;;;;;54.30;30.68;;;;;;;11.11;46.02;100028.92;1655002;86;20292;-76
2021/03/05 01:59:31;;;;;;;56.60;30.08;;;;;;;11.05;46.09;100024.25;1655158;86;21248;-75
2021/03/05 02:02:08;;;;;;;53.02;31.23;;;;;;;11.01;46.16;100026.94;1655360;86;21222;-77
2021/03/05 02:04:36;;;;;;;58.98;32.03;;;;;;;10.98;46.23;100032.63;1653216;86;24091;-76
2021/03/05 02:07:05;;;;;;;61.95;33.08;;;;;;;10.95;46.23;100036.19;1655392;86;21262;-76
2021/03/05 02:09:34;;;;;;;54.42;30.02;;;;;;;10.93;46.28;100036.33;1654746;86;21652;-79
2021/03/05 02:12:07;;;;;;;51.65;28.02;;;;;;;10.90;46.33;100033.51;1655701;86;21631;-76
2021/03/05 02:14:34;;;;;;;60.12;32.28;;;;;;;10.92;46.36;100040.03;1655748;86;21208;-75
2021/03/05 02:17:25;;;;;;;56.25;33.63;;;;;;;10.92;46.49;100036.01;1655906;86;21224;-75
2021/03/05 02:20:36;;;;;;;67.32;38.10;;;;;;;10.93;46.54;100040.35;1654382;86;21219;-74
2021/03/05 02:23:40;;;;;;;68.47;39.30;;;;;;;10.93;46.57;100030.97;1655659;86;21378;-77
2021/03/05 02:26:52;;;;;;;65.10;37.50;;;;;;;10.94;46.57;100032.64;1652848;86;21208;-77
2021/03/05 02:29:36;;;;;;;62.85;35.83;;;;;;;10.93;46.63;100039.84;1652746;85;21216;-74
2021/03/05 02:32:17;;;;;;;62.58;35.92;;;;;;;10.91;46.68;100037.86;1655190;86;21228;-78
2021/03/05 02:34:47;;;;;;;58.60;33.67;;;;;;;10.90;46.71;100040.69;1654816;85;21216;-75
2021/03/05 02:37:16;;;;;;;57.13;32.48;;;;;;;10.89;46.68;100045.20;1652854;86;21216;-75
2021/03/05 02:39:59;;;;;;;54.18;30.45;;;;;;;10.88;46.56;100051.58;1656442;86;21213;-76
2021/03/05 02:42:45;;;;;;;53.00;29.18;;;;;;;10.88;46.45;100049.41;1651818;86;21605;-75
2021/03/05 02:45:17;;;;;;;58.28;30.92;;;;;;;10.89;46.32;100049.23;1652784;86;21512;-78
2021/03/05 02:47:48;;;;;;;56.48;29.23;;;;;;;10.90;46.19;100054.95;1655647;86;21245;-80
2021/03/05 02:50:18;;;;;;;56.48;28.83;;;;;;;10.88;46.09;100060.13;1655894;86;21268;-76
2021/03/05 02:52:46;;;;;;;58.65;30.00;;;;;;;10.87;46.02;100051.77;1655749;86;21230;-76
2021/03/05 02:55:14;;;;;;;60.35;28.65;;;;;;;10.85;45.96;100057.78;1628424;86;21570;-75
2021/03/05 02:57:45;;;;;;;55.63;29.25;;;;;;;10.85;45.94;100061.80;1635064;86;21233;-80
2021/03/05 03:00:17;;;;;;;57.58;29.27;;;;;;;10.83;45.91;100059.30;1655484;85;21743;-74
2021/03/05 03:02:46;;;;;;;56.92;28.80;;;;;;;10.83;45.80;100062.48;1659753;85;21203;-75
2021/03/05 03:05:14;;;;;;;57.38;28.60;;;;;;;10.84;45.68;100060.13;1633844;85;21475;-77
2021/03/05 03:07:45;;;;;;;58.23;29.27;;;;;;;10.83;45.59;100063.31;1630700;86;21715;-76
2021/03/05 03:10:13;;;;;;;58.98;29.42;;;;;;;10.84;45.55;100064.98;1655910;86;21218;-80
2021/03/05 03:12:41;;;;;;;61.88;30.95;;;;;;;10.83;45.54;100068.67;1652892;85;21807;-75
2021/03/05 03:15:12;;;;;;;62.55;31.80;;;;;;;10.83;45.53;100073.20;1654905;86;21215;-77
2021/03/05 03:17:44;;;;;;;65.65;31.70;;;;;;;10.81;45.47;100074.72;1654927;86;21232;-77
2021/03/05 03:20:16;;;;;;;65.22;32.67;;;;;;;10.81;45.52;100074.72;1628214;86;21228;-75
2021/03/05 03:22:43;;;;;;;63.02;31.90;;;;;;;10.81;45.51;100077.40;1655190;86;21232;-76
2021/03/05 03:25:12;;;;;;;63.02;34.00;;;;;;;10.82;45.46;100083.59;1651624;86;21697;-75
2021/03/05 03:27:40;;;;;;;65.05;32.83;;;;;;;10.81;45.43;100086.77;1652279;86;21217;-78
2021/03/05 03:30:12;;;;;;;68.00;33.85;;;;;;;10.81;45.49;100086.77;1648280;86;21077;-78
2021/03/05 03:32:39;;;;;;;67.95;33.85;;;;;;;10.82;45.44;100083.08;1652560;86;21213;-75
2021/03/05 03:35:10;;;;;;;62.40;30.82;;;;;;;10.81;45.36;100093.47;1649504;85;21221;-74
2021/03/05 03:37:38;;;;;;;67.55;32.98;;;;;;;10.80;45.27;100094.95;1655488;86;21300;-74
2021/03/05 03:40:16;;;;;;;64.67;32.67;;;;;;;10.80;45.13;100096.30;1655725;86;21640;-74
2021/03/05 03:42:46;;;;;;;61.15;31.90;;;;;;;10.79;45.10;100090.11;1653059;86;21274;-76
2021/03/05 03:45:16;;;;;;;60.38;32.23;;;;;;;10.78;45.05;100095.14;1655233;86;21261;-74
2021/03/05 03:47:44;;;;;;;74.00;36.93;;;;;;;10.79;44.99;100093.30;1655566;86;21245;-76
2021/03/05 03:50:29;;;;;;;76.02;35.83;;;;;;;10.76;45.02;100091.77;1652994;86;21745;-80
2021/03/05 03:53:16;;;;;;;67.97;33.15;;;;;;;10.76;45.06;100094.95;1656036;86;21676;-76
2021/03/05 03:55:51;;;;;;;57.15;30.12;;;;;;;10.75;45.11;100099.48;1655782;86;21230;-73
2021/03/05 03:58:25;;;;;;;58.58;29.95;;;;;;;10.75;45.08;100101.33;1657709;86;21206;-72
2021/03/05 04:00:56;;;;;;;60.55;30.77;;;;;;;10.74;45.07;100103.68;1657106;86;21390;-72
2021/03/05 04:03:27;;;;;;;60.15;31.10;;;;;;;10.73;45.07;100109.55;1655824;86;21361;-74
2021/03/05 04:05:55;;;;;;;64.50;32.25;;;;;;;10.73;45.15;100108.20;1656105;86;21209;-75
2021/03/05 04:08:26;;;;;;;58.50;30.30;;;;;;;10.73;45.24;100110.05;1654909;86;21260;-76
2021/03/05 04:10:54;;;;;;;57.27;29.07;;;;;;;10.71;45.26;100116.89;1656022;86;21724;-74
2021/03/05 04:13:22;;;;;;;59.77;28.52;;;;;;;10.74;45.21;100112.55;1655634;86;21237;-75
2021/03/05 04:15:50;;;;;;;51.50;26.55;;;;;;;10.76;45.06;100108.36;1655899;86;21252;-76
2021/03/05 04:18:19;;;;;;;49.70;25.60;;;;;;;10.74;45.16;100111.21;1608058;86;21217;-76
2021/03/05 04:20:46;;;;;;;50.15;25.37;;;;;;;10.74;44.99;100106.36;1655949;86;21265;-74
2021/03/05 04:23:14;;;;;;;52.08;27.05;;;;;;;10.73;44.81;100097.99;1655506;86;21314;-77
2021/03/05 04:25:42;;;;;;;62.38;32.60;;;;;;;10.73;44.87;100108.20;1656154;85;21462;-73
2021/03/05 04:28:09;;;;;;;74.12;37.55;;;;;;;10.72;44.87;100102.99;1641767;86;21757;-73
2021/03/05 04:30:37;;;;;;;70.83;35.90;;;;;;;10.73;44.78;100108.20;1654951;86;21250;-75
2021/03/05 04:33:06;;;;;;;57.60;29.90;;;;;;;10.74;44.82;100109.03;1655448;86;21241;-76
2021/03/05 04:35:34;;;;;;;60.30;31.35;;;;;;;10.74;44.70;100114.39;1655945;85;21237;-79
2021/03/05 04:38:02;;;;;;;51.70;27.52;;;;;;;10.75;44.73;100113.38;1655231;86;21504;-73
2021/03/05 04:40:29;;;;;;;49.67;27.13;;;;;;;10.75;44.68;100118.74;1654985;86;21226;-75
2021/03/05 04:42:57;;;;;;;54.30;28.65;;;;;;;10.74;44.69;100111.72;1654869;86;21713;-75
2021/03/05 04:45:26;;;;;;;51.90;28.05;;;;;;;10.71;44.62;100116.06;1655280;86;21205;-74
2021/03/05 04:47:54;;;;;;;51.77;27.90;;;;;;;10.71;44.54;100113.38;1655330;86;21253;-73
2021/03/05 04:50:22;;;;;;;49.73;25.65;;;;;;;10.70;44.48;100121.92;1654382;86;21225;-73
2021/03/05 04:52:52;;;;;;;51.05;25.45;;;;;;;10.69;44.46;100124.27;1655176;86;21240;-73
2021/03/05 04:55:19;;;;;;;50.23;26.05;;;;;;;10.69;44.39;100127.45;1653106;86;21233;-76
2021/03/05 04:57:47;;;;;;;50.20;26.45;;;;;;;10.68;44.40;100131.98;1655352;86;21558;-76
2021/03/05 05:00:15;;;;;;;48.83;25.48;;;;;;;10.69;44.40;100131.48;1654975;86;21257;-76
2021/03/05 05:02:43;;;;;;;51.48;26.52;;;;;;;10.67;44.38;100141.00;1646307;86;21247;-77
2021/03/05 05:05:12;;;;;;;48.45;25.20;;;;;;;10.66;44.43;100142.84;1641453;86;21749;-75
2021/03/05 05:07:40;;;;;;;52.43;26.80;;;;;;;10.67;44.65;100150.38;1642409;87;21181;-75
2021/03/05 05:10:08;;;;;;;49.55;25.85;;;;;;;10.62;44.97;100145.52;1647990;86;21613;-77
2021/03/05 05:12:36;;;;;;;55.75;27.40;;;;;;;10.62;45.20;100150.87;1653427;86;21140;-73
2021/03/05 05:15:05;;;;;;;51.05;25.70;;;;;;;10.62;45.47;100152.72;1646938;85;21137;-74
2021/03/05 05:17:33;;;;;;;52.33;26.73;;;;;;;10.58;45.71;100153.58;1655426;86;21186;-76
2021/03/05 05:20:01;;;;;;;50.33;27.00;;;;;;;10.57;45.94;100158.56;1653855;85;21255;-73
2021/03/05 05:22:31;;;;;;;52.73;26.30;;;;;;;10.55;46.10;100156.57;1649537;85;21217;-74
2021/03/05 05:24:58;;;;;;;49.00;25.75;;;;;;;10.55;46.19;100162.43;1650597;86;21250;-73
2021/03/05 05:27:26;;;;;;;53.98;26.82;;;;;;;10.53;46.25;100163.08;1652857;86;21206;-74
2021/03/05 05:29:54;;;;;;;52.70;28.38;;;;;;;10.52;46.18;100165.43;1628502;86;21233;-76
2021/03/05 05:32:21;;;;;;;52.43;26.45;;;;;;;10.48;46.26;100172.11;1653710;86;21095;-74
2021/03/05 05:34:49;;;;;;;55.17;27.95;;;;;;;10.47;46.29;100168.60;1653348;85;21226;-73
2021/03/05 05:37:17;;;;;;;54.05;28.55;;;;;;;10.46;46.22;100167.44;1650202;85;21593;-73
2021/03/05 05:39:44;;;;;;;50.10;27.00;;;;;;;10.47;46.08;100171.28;1638097;85;21558;-72
2021/03/05 05:42:12;;;;;;;57.30;27.32;;;;;;;10.45;46.02;100179.99;1648959;86;21249;-76
2021/03/05 05:44:39;;;;;;;56.28;28.17;;;;;;;10.44;46.02;100175.61;1607128;85;21199;-74
2021/03/05 05:47:07;;;;;;;58.75;30.10;;;;;;;10.44;46.01;100177.45;1652906;85;21200;-77
2021/03/05 05:49:36;;;;;;;56.70;29.48;;;;;;;10.43;46.03;100176.63;1650829;86;21230;-75
2021/03/05 05:52:04;;;;;;;54.88;28.85;;;;;;;10.40;46.05;100180.95;1645820;86;21261;-77
2021/03/05 05:54:34;;;;;;;65.20;33.70;;;;;;;10.39;46.12;100181.46;1652517;86;21250;-75
2021/03/05 05:57:01;;;;;;;62.98;33.90;;;;;;;10.39;46.12;100189.49;1651685;86;21253;-76
2021/03/05 05:59:30;;;;;;;66.02;32.17;;;;;;;10.41;46.18;100185.33;1629584;86;21182;-74
2021/03/05 06:01:59;;;;;;;60.48;31.10;;;;;;;10.42;46.24;100182.98;1612480;85;21148;-75
2021/03/05 06:04:28;;;;;;;58.78;31.60;;;;;;;10.45;46.29;100191.20;1655321;85;21497;-77
2021/03/05 06:06:56;;;;;;;67.55;33.85;;;;;;;10.45;46.19;100185.34;1652736;85;21145;-76
2021/03/05 06:09:24;;;;;;;62.62;31.65;;;;;;;10.46;46.19;100188.86;1668957;85;21961;-75
2021/03/05 06:11:51;;;;;;;62.20;31.20;;;;;;;10.45;46.24;100198.73;1641206;85;21599;-74
2021/03/05 06:14:19;;;;;;;59.48;31.90;;;;;;;10.47;46.15;100196.72;1669990;84;21186;-74
2021/03/05 06:16:55;;;;;;;57.93;28.75;;;;;;;10.47;46.11;100202.08;1666669;84;21134;-74
2021/03/05 06:19:25;;;;;;;61.85;30.55;;;;;;;10.45;46.10;100199.23;1650719;85;21195;-75
2021/03/05 06:21:56;;;;;;;58.17;29.65;;;;;;;10.43;46.09;100203.40;1652200;85;21168;-74
2021/03/05 06:24:23;;;;;;;56.85;29.35;;;;;;;10.43;46.03;100203.40;1659967;84;21147;-74
2021/03/05 06:27:01;;;;;;;56.42;29.23;;;;;;;10.43;46.02;100203.40;1662158;84;21139;-74
2021/03/05 06:29:48;;;;;;;56.40;29.07;;;;;;;10.41;45.97;100206.75;1666772;84;21132;-74
2021/03/05 06:32:19;;;;;;;51.95;27.73;;;;;;;10.40;45.86;100210.41;1635339;86;21191;-75
2021/03/05 06:34:52;;;;;;;50.60;27.30;;;;;;;10.36;45.87;100210.42;1663960;85;21748;-77
2021/03/05 06:37:25;;;;;;;54.88;27.25;;;;;;;10.36;45.82;100212.59;1627863;86;22167;-77
2021/03/05 06:40:08;;;;;;;50.75;26.80;;;;;;;10.36;45.80;100208.58;1649757;85;21169;-73
2021/03/05 06:42:53;;;;;;;51.25;25.50;;;;;;;10.35;45.84;100203.37;1635675;87;21582;-75
2021/03/05 06:45:23;;;;;;;53.52;26.50;;;;;;;10.37;45.88;100212.09;1673365;83;21224;-72
2021/03/05 06:48:06;;;;;;;52.78;25.68;;;;;;;10.35;45.89;100210.06;1637431;85;21204;-73
2021/03/05 06:50:38;;;;;;;52.43;26.45;;;;;;;10.37;45.87;100214.77;1652283;85;21197;-75
2021/03/05 06:53:24;;;;;;;53.78;25.92;;;;;;;10.37;45.75;100214.27;1629262;85;21590;-73
2021/03/05 06:55:52;;;;;;;48.95;25.48;;;;;;;10.39;45.68;100212.76;1664847;84;21664;-75
2021/03/05 06:58:21;;;;;;;45.73;23.75;;;;;;;10.38;45.59;100206.56;1666233;84;21180;-76
2021/03/05 07:00:48;;;;;;;44.38;22.55;;;;;;;10.38;45.38;100208.41;1644287;84;22220;-75
2021/03/05 07:03:21;;;;;;;45.35;22.90;;;;;;;10.40;45.15;100218.44;1663157;84;21133;-75
2021/03/05 07:05:50;;;;;;;46.88;22.65;;;;;;;10.39;45.10;100224.30;1663692;84;21149;-77
2021/03/05 07:08:41;;;;;;;42.62;23.02;;;;;;;10.38;44.93;100215.94;1663593;84;21110;-75
2021/03/05 07:11:11;;;;;;;45.23;23.27;;;;;;;10.38;44.94;100221.80;1660368;84;21192;-75
2021/03/05 07:13:51;;;;;;;48.30;27.50;;;;;;;10.37;44.82;100220.13;1664174;84;21161;-75
2021/03/05 07:16:19;;;;;;;48.40;26.23;;;;;;;10.39;44.63;100222.12;1668027;84;21687;-74
2021/03/05 07:18:47;;;;;;;45.40;24.72;;;;;;;10.36;44.71;100221.97;1666325;84;21117;-73
2021/03/05 07:21:18;;;;;;;49.27;26.10;;;;;;;10.37;44.65;100228.16;1665778;84;21229;-75
2021/03/05 07:23:47;;;;;;;44.95;24.67;;;;;;;10.39;44.53;100228.82;1665391;85;21210;-74
2021/03/05 07:26:14;;;;;;;46.83;23.85;;;;;;;10.37;44.57;100226.82;1662704;85;21249;-75
2021/03/05 07:28:46;;;;;;;40.88;22.82;;;;;;;10.38;44.50;100225.31;1664447;84;21221;-75
2021/03/05 07:31:17;;;;;;;41.15;22.45;;;;;;;10.39;44.45;100225.64;1662039;84;21125;-74
2021/03/05 07:33:49;;;;;;;41.10;21.00;;;;;;;10.39;44.40;100225.64;1660791;84;21101;-76
2021/03/05 07:38:52;;;;;;;40.78;21.68;;;;;;;10.40;44.19;100231.83;1869661;74;22721;-74
2021/03/05 07:41:22;;;;;;;39.10;21.40;;;;;;;10.38;44.22;100233.34;1834943;76;21632;-73
2021/03/05 07:43:52;;;;;;;38.20;20.65;;;;;;;10.37;44.03;100240.20;1841769;76;21082;-76
2021/03/05 07:46:20;;;;;;;39.90;20.70;;;;;;;10.37;43.92;100239.70;1805563;76;21139;-74
2021/03/05 07:48:49;;;;;;;38.70;21.23;;;;;;;10.36;43.83;100240.71;1837407;76;21132;-74
2021/03/05 07:51:18;;;;;;;42.17;21.62;;;;;;;10.36;43.80;100246.57;1833581;76;21174;-74
2021/03/05 07:53:55;;;;;;;43.73;22.42;;;;;;;10.36;44.04;100249.25;1807672;77;21627;-75
2021/03/05 07:56:49;;;;;;;44.43;22.77;;;;;;;10.34;44.21;100244.53;1826676;76;21120;-75
2021/03/05 07:59:44;;;;;;;43.00;22.13;;;;;;;10.30;44.41;100242.67;1814443;76;22110;-73
2021/03/05 08:02:12;;;;;;;42.90;21.80;;;;;;;10.33;44.63;100242.87;1817014;77;21117;-73
2021/03/05 08:05:04;;;;;;;45.55;23.22;;;;;;;10.33;44.74;100250.90;1806751;77;21080;-73
2021/03/05 08:07:32;;;;;;;41.00;20.95;;;;;;;10.33;44.76;100253.58;1809021;77;21627;-75
2021/03/05 08:10:01;;;;;;;40.98;20.23;;;;;;;10.33;44.55;100250.90;1803545;77;21164;-75
2021/03/05 08:15:15;;;;;;;39.27;20.17;;;;;;;10.32;44.29;100255.42;1812103;76;21113;-72
2021/03/05 08:17:46;;;;;;;37.83;19.62;;;;;;;10.32;44.31;100250.56;1813702;77;21093;-74
2021/03/05 08:20:22;;;;;;;38.15;21.17;;;;;;;10.32;44.24;100258.09;1746503;78;21109;-75
2021/03/05 08:23:06;;;;;;;45.08;21.27;;;;;;;10.34;44.33;100260.09;1816816;76;21140;-74
2021/03/05 08:25:36;;;;;;;41.98;20.92;;;;;;;10.35;44.40;100259.59;1817057;76;21117;-74
2021/03/05 08:28:04;;;;;;;45.08;21.82;;;;;;;10.36;44.35;100249.25;1814511;77;21139;-75
2021/03/05 08:30:42;;;;;;;40.40;20.95;;;;;;;10.36;44.29;100250.59;1812978;77;21120;-74
2021/03/05 08:33:28;;;;;;;43.05;20.85;;;;;;;10.36;44.20;100244.73;1818671;77;21121;-73
2021/03/05 08:35:57;;;;;;;42.97;22.43;;;;;;;10.35;44.27;100246.20;1803122;77;21156;-73
2021/03/05 08:38:35;;;;;;;50.55;25.00;;;;;;;10.38;44.22;100244.55;1785876;76;21443;-75
2021/03/05 08:41:04;;;;;;;48.15;23.25;;;;;;;10.37;43.99;100234.34;1795891;77;21093;-77
2021/03/05 08:43:38;;;;;;;49.00;24.30;;;;;;;10.34;43.76;100245.88;1815600;77;21651;-77
2021/03/05 08:46:08;;;;;;;46.73;23.38;;;;;;;10.33;43.87;100252.23;1817625;77;21141;-72
2021/03/05 08:48:45;;;;;;;42.43;22.87;;;;;;;10.31;44.00;100244.84;1764668;77;22208;-75
2021/03/05 08:51:19;;;;;;;42.58;22.25;;;;;;;10.34;44.01;100256.58;1816997;76;21249;-73
2021/03/05 08:53:55;;;;;;;45.78;23.70;;;;;;;10.35;43.87;100268.46;1816387;76;21110;-74
2021/03/05 08:56:28;;;;;;;45.50;22.93;;;;;;;10.34;43.92;100275.33;1818246;76;21128;-75
2021/03/05 08:59:05;;;;;;;44.93;23.18;;;;;;;10.35;43.97;100278.33;1816479;76;21631;-73
2021/03/05 09:01:38;;;;;;;39.25;21.02;;;;;;;10.33;43.85;100275.83;1806068;77;21157;-73
2021/03/05 09:04:17;;;;;;;37.98;19.55;;;;;;;10.35;43.86;100275.66;1806492;77;21651;-74
2021/03/05 09:06:56;;;;;;;37.20;19.30;;;;;;;10.35;43.64;100267.63;1837061;75;21148;-76
2021/03/05 09:09:33;;;;;;;40.20;21.12;;;;;;;10.35;43.43;100266.28;1802537;77;21639;-75
2021/03/05 09:12:22;;;;;;;35.83;18.75;;;;;;;10.30;43.52;100265.43;1827065;77;21144;-74
2021/03/05 09:15:12;;;;;;;40.73;21.68;;;;;;;10.27;43.45;100268.45;1801330;77;21113;-76
2021/03/05 09:17:53;;;;;;;41.50;20.52;;;;;;;10.26;43.59;100277.45;1835114;77;21121;-73
2021/03/05 09:20:21;;;;;;;36.05;19.90;;;;;;;10.24;43.53;100282.62;1834129;75;21126;-77
2021/03/05 09:22:48;;;;;;;34.15;17.10;;;;;;;10.23;43.51;100280.44;1835626;75;21136;-77
2021/03/05 09:25:17;;;;;;;35.17;18.23;;;;;;;10.22;43.39;100284.59;1839370;75;21710;-74
2021/03/05 09:27:45;;;;;;;35.03;18.90;;;;;;;10.21;43.44;100282.42;1837024;75;21151;-75
2021/03/05 09:30:18;;;;;;;33.33;18.15;;;;;;;10.20;43.50;100293.30;1802431;75;21147;-74
2021/03/05 09:32:49;;;;;;;37.17;18.50;;;;;;;10.20;43.57;100306.69;1835229;75;21103;-76
2021/03/05 09:35:25;;;;;;;39.73;18.17;;;;;;;10.20;43.66;100310.70;1828806;75;21145;-73
2021/03/05 09:38:07;;;;;;;29.00;16.67;;;;;;;10.21;43.72;100315.05;1782017;77;21129;-75
2021/03/05 09:40:50;;;;;;;31.77;16.87;;;;;;;10.21;43.51;100315.05;1828606;76;22033;-74
2021/03/05 09:43:20;;;;;;;30.52;17.62;;;;;;;10.23;43.53;100316.58;1812016;77;21026;-74
2021/03/05 09:45:51;;;;;;;35.17;18.52;;;;;;;10.22;43.35;100300.19;1802468;77;21120;-75
2021/03/05 09:48:36;;;;;;;39.50;18.80;;;;;;;10.21;43.37;100293.63;1814113;77;21116;-74
2021/03/05 09:51:12;;;;;;;38.20;19.45;;;;;;;10.18;43.47;100293.98;1807623;77;21989;-74
2021/03/05 09:53:56;;;;;;;36.53;18.87;;;;;;;10.14;43.49;100283.58;1787907;78;21160;-74
2021/03/05 09:56:48;;;;;;;35.23;18.73;;;;;;;10.15;43.52;100289.27;1829396;76;21126;-77
2021/03/05 09:59:17;;;;;;;39.70;19.17;;;;;;;10.15;43.42;100291.11;1803496;78;20991;-76
2021/03/05 10:01:49;;;;;;;35.65;19.95;;;;;;;10.13;43.53;100279.23;1816830;77;21096;-74
2021/03/05 10:04:17;;;;;;;41.18;21.20;;;;;;;10.12;43.61;100290.91;1818481;77;21081;-75
2021/03/05 10:06:52;;;;;;;39.30;20.15;;;;;;;10.12;43.78;100297.60;1815997;77;21128;-73
2021/03/05 10:09:20;;;;;;;40.85;19.70;;;;;;;10.14;43.81;100295.63;1816161;77;21225;-73
2021/03/05 10:11:48;;;;;;;40.75;20.77;;;;;;;10.15;43.72;100305.32;1815129;77;22226;-74
2021/03/05 10:14:29;;;;;;;41.33;20.40;;;;;;;10.15;43.81;100298.63;1820009;77;21136;-75
2021/03/05 10:17:14;;;;;;;34.33;18.50;;;;;;;10.16;43.84;100308.33;1819196;76;21118;-76
2021/03/05 10:19:44;;;;;;;34.92;18.80;;;;;;;10.16;43.80;100309.67;1815883;77;20994;-76
2021/03/05 10:22:12;;;;;;;36.90;19.25;;;;;;;10.18;43.92;100314.05;1813387;77;21672;-75
2021/03/05 10:24:40;;;;;;;34.40;19.30;;;;;;;10.18;43.87;100311.37;1816240;77;21452;-75
2021/03/05 10:29:56;;;;;;;34.30;18.07;;;;;;;10.18;43.83;100315.39;1806304;78;21077;-74
2021/03/05 10:32:32;;;;;;;32.45;17.80;;;;;;;10.20;43.76;100316.89;1811306;77;21102;-75
2021/03/05 10:35:04;;;;;;;35.98;18.70;;;;;;;10.21;43.79;100317.72;1815754;78;21128;-73
2021/03/05 10:37:35;;;;;;;35.95;17.82;;;;;;;10.20;43.77;100320.06;1819276;78;21466;-76
2021/03/05 10:40:05;;;;;;;38.45;19.57;;;;;;;10.21;43.80;100313.71;1817539;77;21655;-74
2021/03/05 10:42:33;;;;;;;42.80;20.02;;;;;;;10.22;43.87;100302.00;1815958;77;20985;-73
2021/03/05 10:45:01;;;;;;;37.93;19.40;;;;;;;10.22;43.95;100292.62;1816394;77;21123;-73
2021/03/05 10:47:30;;;;;;;34.60;18.77;;;;;;;10.22;43.97;100288.61;1821738;77;21152;-74
2021/03/05 10:50:00;;;;;;;36.50;18.55;;;;;;;10.23;43.85;100286.30;1822568;77;21132;-73
2021/03/05 10:52:28;;;;;;;33.38;18.27;;;;;;;10.20;43.90;100285.27;1817478;78;21135;-74
2021/03/05 10:54:56;;;;;;;33.73;18.23;;;;;;;10.20;44.02;100296.81;1785393;78;21104;-73
2021/03/05 10:57:24;;;;;;;35.35;18.23;;;;;;;10.21;44.04;100303.00;1817781;78;21639;-74
2021/03/05 10:59:53;;;;;;;43.02;18.70;;;;;;;10.21;43.99;100297.65;1813990;78;20986;-73
2021/03/05 11:02:21;;;;;;;40.15;20.27;;;;;;;10.21;44.03;100296.31;1784479;78;21179;-75
2021/03/05 11:04:50;;;;;;;35.13;18.12;;;;;;;10.22;44.08;100300.66;1802978;78;21105;-74
2021/03/05 11:07:22;;;;;;;38.02;19.00;;;;;;;10.23;44.17;100301.02;1769676;76;21096;-74
2021/03/05 11:09:51;;;;;;;37.33;20.68;;;;;;;10.21;44.24;100303.84;1815727;78;21097;-75
2021/03/05 11:12:19;;;;;;;34.13;18.52;;;;;;;10.21;44.37;100302.50;1815014;76;21261;-76
2021/03/05 11:14:47;;;;;;;35.92;19.50;;;;;;;10.24;44.26;100300.88;1815764;76;21183;-76
2021/03/05 11:17:14;;;;;;;34.55;17.85;;;;;;;10.24;44.21;100302.69;1800561;78;21196;-78
2021/03/05 11:19:42;;;;;;;37.73;19.48;;;;;;;10.24;44.18;100302.22;1774591;78;21041;-75
2021/03/05 11:22:09;;;;;;;39.98;21.73;;;;;;;10.23;44.34;100295.67;1795434;78;21199;-76
2021/03/05 11:24:39;;;;;;;44.10;23.12;;;;;;;10.26;44.37;100299.38;1819615;77;21483;-75
2021/03/05 11:27:08;;;;;;;44.00;21.75;;;;;;;10.25;44.33;100303.06;1835105;76;21200;-74
2021/03/05 11:29:37;;;;;;;45.17;20.82;;;;;;;10.27;44.22;100298.41;1839124;76;21179;-76
2021/03/05 11:32:07;;;;;;;40.43;19.15;;;;;;;10.28;44.34;100304.92;1809391;77;21712;-77
2021/03/05 11:34:35;;;;;;;34.40;17.95;;;;;;;10.32;44.16;100297.42;1795691;77;21576;-75
2021/03/05 11:37:05;;;;;;;32.88;17.67;;;;;;;10.33;44.13;100303.10;1805280;77;21205;-73
2021/03/05 11:39:32;;;;;;;39.92;19.90;;;;;;;10.35;44.05;100309.13;1785255;78;21205;-76